Maersk Bali — 9V7499 — position and weather

sailwx.info

Track history (hours):
 
Tides and Currents Weather Stations Pressure Air Temp Water Temp Dewpoint Dewpoint Depression Visibility Wind Speed Wind Dir Waves Ship Positions

Maersk Bali

Last reported at 2017-Sep-08 07:46 UTC. Time now 2017-Sep-20 02:15 UTC.
Position N 34°35' W 024°33'.
Warning: this ship's position is 11 days out of date.

Length 223 m; draft 10.5 m.

Type: Ship (hazmat cat A). MMSI: 563102000.

Date/timePositionNaut miles runAvg speedWind from/ knotsBaromVisibWave heightAir tempDewpointWater temp
2017-Sep-08 07:46N 34°35' W 024°33'1710.9
2017-Sep-08 06:11N 34°37' W 024°12'311.0
2017-Sep-08 05:53N 34°38' W 024°08'3111.0
2017-Sep-08 03:07N 34°44' W 023°32'111.1
2017-Sep-08 03:00N 34°44' W 023°30'611.1
2017-Sep-08 02:30N 34°45' W 023°24'25711.3
2017-Sep-07 03:49N 35°23' W 018°13'11411.2
2017-Sep-06 17:37N 35°35' W 015°53'5611.2
2017-Sep-06 12:37N 35°39' W 014°44'111.2
2017-Sep-06 12:30N 35°40' W 014°43'3411.9
2017-Sep-06 09:41N 35°43' W 014°02'919.7
2017-Sep-06 09:13N 35°43' W 013°51'5111.5
2017-Sep-06 04:46N 35°48' W 012°48'310.9
2017-Sep-06 04:30N 35°48' W 012°45'11310.7
2017-Sep-05 17:57N 35°53' W 010°25'13111.1
2017-Sep-05 06:06N 35°57' W 007°43'711.4
2017-Sep-05 05:27N 35°57' W 007°34'511.3
2017-Sep-05 04:59N 35°57' W 007°28'611.5
2017-Sep-05 04:30N 35°57' W 007°21'811.5
2017-Sep-05 03:46N 35°57' W 007°10'85 4.5
2017-Sep-04 08:52N 36°08' W 005°26'0 0.0
2017-Sep-04 08:04N 36°08' W 005°26'0 0.0
2017-Sep-04 07:58N 36°08' W 005°26'0 0.0
2017-Sep-04 07:28N 36°08' W 005°26'0 0.0
2017-Sep-04 06:52N 36°08' W 005°26'0 0.0
2017-Sep-04 05:55N 36°08' W 005°26'0 0.0
2017-Sep-04 05:28N 36°08' W 005°26'0 0.0
2017-Sep-04 04:58N 36°08' W 005°26'0 0.0
2017-Sep-04 04:28N 36°08' W 005°26'0 0.0
2017-Sep-04 03:58N 36°08' W 005°26'0 0.0
2017-Sep-04 03:28N 36°08' W 005°26'0 0.0
2017-Sep-04 02:58N 36°08' W 005°26'0 0.0
2017-Sep-04 02:28N 36°08' W 005°26'0 0.0
2017-Sep-04 01:52N 36°08' W 005°26'0 0.0
2017-Sep-04 01:16N 36°08' W 005°26'0 0.0
2017-Sep-04 00:46N 36°08' W 005°26'0 0.0
2017-Sep-04 00:28N 36°08' W 005°26'1 1.2
2017-Sep-04 00:00N 36°09' W 005°26'2 4.7
2017-Sep-03 23:30N 36°08' W 005°23'0 0.5
2017-Sep-03 22:59N 36°07' W 005°23'3 4.6
2017-Sep-03 22:22N 36°05' W 005°22'2 4.3
2017-Sep-03 22:00N 36°04' W 005°20'816.0
2017-Sep-03 21:30N 36°05' W 005°10'19114.3
2017-Sep-03 08:06N 36°33' W 001°15'814.2
2017-Sep-03 07:31N 36°34' W 001°05'014.7
2017-Sep-03 07:30N 36°34' W 001°05'2215.1
2017-Sep-03 06:02N 36°38' W 000°38'115.2
2017-Sep-03 06:00N 36°38' W 000°37'47113.5
2017-Sep-01 19:09N 37°38' E 009°09'212.3
2017-Sep-01 19:00N 37°38' E 009°12'612.3
2017-Sep-01 18:30N 37°38' E 009°19'612.2
2017-Sep-01 18:00N 37°38' E 009°27'1112.1
2017-Sep-01 17:07N 37°38' E 009°41'112.1
2017-Sep-01 17:00N 37°38' E 009°42'612.1
2017-Sep-01 16:30N 37°38' E 009°50'612.2
2017-Sep-01 16:00N 37°38' E 009°58'612.2
2017-Sep-01 15:30N 37°38' E 010°05'612.2
2017-Sep-01 15:00N 37°38' E 010°13'612.2
2017-Sep-01 14:30N 37°37' E 010°21'612.5
2017-Sep-01 14:00N 37°35' E 010°29'612.5
2017-Sep-01 13:30N 37°34' E 010°36'612.3
2017-Sep-01 13:00N 37°33' E 010°44'612.3
2017-Sep-01 12:30N 37°31' E 010°51'612.2
2017-Sep-01 12:00N 37°30' E 010°59'612.1
2017-Sep-01 11:30N 37°28' E 011°06'612.2
2017-Sep-01 11:00N 37°26' E 011°13'612.3
2017-Sep-01 10:30N 37°24' E 011°20'612.2
2017-Sep-01 09:59N 37°21' E 011°28'1112.3
2017-Sep-01 09:03N 37°15' E 011°40'312.5
2017-Sep-01 08:51N 37°14' E 011°43'412.6
2017-Sep-01 08:30N 37°11' E 011°47'612.5
2017-Sep-01 08:00N 37°08' E 011°54'612.2
2017-Sep-01 07:30N 37°05' E 012°01'612.3
2017-Sep-01 07:00N 37°03' E 012°08'612.5
2017-Sep-01 06:30N 37°01' E 012°15'612.3
2017-Sep-01 06:00N 36°59' E 012°22'612.1
2017-Sep-01 05:30N 36°57' E 012°30'712.0
2017-Sep-01 04:57N 36°54' E 012°37'512.1
2017-Sep-01 04:30N 36°52' E 012°43'612.0
2017-Sep-01 04:00N 36°50' E 012°50'811.8
2017-Sep-01 03:21N 36°48' E 012°60'411.8
2017-Sep-01 03:00N 36°46' E 013°05'611.9
2017-Sep-01 02:30N 36°45' E 013°12'611.9
2017-Sep-01 01:58N 36°44' E 013°19'711.9
2017-Sep-01 01:25N 36°42' E 013°27'512.0
2017-Sep-01 01:00N 36°40' E 013°33'712.0
2017-Sep-01 00:23N 36°38' E 013°42'512.1
2017-Sep-01 00:00N 36°37' E 013°48'712.1
2017-Aug-31 23:24N 36°35' E 013°56'512.1
2017-Aug-31 23:00N 36°33' E 014°02'612.1
2017-Aug-31 22:30N 36°31' E 014°09'611.9
2017-Aug-31 22:00N 36°30' E 014°16'611.8
2017-Aug-31 21:30N 36°28' E 014°24'611.6
2017-Aug-31 21:00N 36°27' E 014°31'611.6
2017-Aug-31 20:30N 36°25' E 014°37'611.6
2017-Aug-31 20:00N 36°24' E 014°44'611.6
2017-Aug-31 19:30N 36°22' E 014°51'611.9
2017-Aug-31 18:58N 36°21' E 014°59'511.8
2017-Aug-31 18:30N 36°20' E 015°06'611.6
2017-Aug-31 18:00N 36°19' E 015°13'611.8
2017-Aug-31 17:30N 36°19' E 015°20'  
Track history (hours):
 
Tides and Currents Weather Stations Pressure Air Temp Water Temp Dewpoint Dewpoint Depression Visibility Wind Speed Wind Dir Waves Ship Positions

Maersk Bali

Last reported at 2017-Sep-08 07:46 UTC. Time now 2017-Sep-20 02:15 UTC.
Position N 34°35' W 024°33'.
Warning: this ship's position is 11 days out of date.

Length 223 m; draft 10.5 m.

Type: Ship (hazmat cat A). MMSI: 563102000.

Date/timePositionNaut miles runAvg speedWind from/ knotsBaromVisibWave heightAir tempDewpointWater temp
2017-Sep-08 07:46N 34°35' W 024°33'1710.9
2017-Sep-08 06:11N 34°37' W 024°12'311.0
2017-Sep-08 05:53N 34°38' W 024°08'3111.0
2017-Sep-08 03:07N 34°44' W 023°32'111.1
2017-Sep-08 03:00N 34°44' W 023°30'611.1
2017-Sep-08 02:30N 34°45' W 023°24'25711.3
2017-Sep-07 03:49N 35°23' W 018°13'11411.2
2017-Sep-06 17:37N 35°35' W 015°53'5611.2
2017-Sep-06 12:37N 35°39' W 014°44'111.2
2017-Sep-06 12:30N 35°40' W 014°43'3411.9
2017-Sep-06 09:41N 35°43' W 014°02'919.7
2017-Sep-06 09:13N 35°43' W 013°51'5111.5
2017-Sep-06 04:46N 35°48' W 012°48'310.9
2017-Sep-06 04:30N 35°48' W 012°45'11310.7
2017-Sep-05 17:57N 35°53' W 010°25'13111.1
2017-Sep-05 06:06N 35°57' W 007°43'711.4
2017-Sep-05 05:27N 35°57' W 007°34'511.3
2017-Sep-05 04:59N 35°57' W 007°28'611.5
2017-Sep-05 04:30N 35°57' W 007°21'811.5
2017-Sep-05 03:46N 35°57' W 007°10'85 4.5
2017-Sep-04 08:52N 36°08' W 005°26'0 0.0
2017-Sep-04 08:04N 36°08' W 005°26'0 0.0
2017-Sep-04 07:58N 36°08' W 005°26'0 0.0
2017-Sep-04 07:28N 36°08' W 005°26'0 0.0
2017-Sep-04 06:52N 36°08' W 005°26'0 0.0
2017-Sep-04 05:55N 36°08' W 005°26'0 0.0
2017-Sep-04 05:28N 36°08' W 005°26'0 0.0
2017-Sep-04 04:58N 36°08' W 005°26'0 0.0
2017-Sep-04 04:28N 36°08' W 005°26'0 0.0
2017-Sep-04 03:58N 36°08' W 005°26'0 0.0
2017-Sep-04 03:28N 36°08' W 005°26'0 0.0
2017-Sep-04 02:58N 36°08' W 005°26'0 0.0
2017-Sep-04 02:28N 36°08' W 005°26'0 0.0
2017-Sep-04 01:52N 36°08' W 005°26'0 0.0
2017-Sep-04 01:16N 36°08' W 005°26'0 0.0
2017-Sep-04 00:46N 36°08' W 005°26'0 0.0
2017-Sep-04 00:28N 36°08' W 005°26'1 1.2
2017-Sep-04 00:00N 36°09' W 005°26'2 4.7
2017-Sep-03 23:30N 36°08' W 005°23'0 0.5
2017-Sep-03 22:59N 36°07' W 005°23'3 4.6
2017-Sep-03 22:22N 36°05' W 005°22'2 4.3
2017-Sep-03 22:00N 36°04' W 005°20'816.0
2017-Sep-03 21:30N 36°05' W 005°10'19114.3
2017-Sep-03 08:06N 36°33' W 001°15'814.2
2017-Sep-03 07:31N 36°34' W 001°05'014.7
2017-Sep-03 07:30N 36°34' W 001°05'2215.1
2017-Sep-03 06:02N 36°38' W 000°38'115.2
2017-Sep-03 06:00N 36°38' W 000°37'47113.5
2017-Sep-01 19:09N 37°38' E 009°09'212.3
2017-Sep-01 19:00N 37°38' E 009°12'612.3
2017-Sep-01 18:30N 37°38' E 009°19'612.2
2017-Sep-01 18:00N 37°38' E 009°27'1112.1
2017-Sep-01 17:07N 37°38' E 009°41'112.1
2017-Sep-01 17:00N 37°38' E 009°42'612.1
2017-Sep-01 16:30N 37°38' E 009°50'612.2
2017-Sep-01 16:00N 37°38' E 009°58'612.2
2017-Sep-01 15:30N 37°38' E 010°05'612.2
2017-Sep-01 15:00N 37°38' E 010°13'612.2
2017-Sep-01 14:30N 37°37' E 010°21'612.5
2017-Sep-01 14:00N 37°35' E 010°29'612.5
2017-Sep-01 13:30N 37°34' E 010°36'612.3
2017-Sep-01 13:00N 37°33' E 010°44'612.3
2017-Sep-01 12:30N 37°31' E 010°51'612.2
2017-Sep-01 12:00N 37°30' E 010°59'612.1
2017-Sep-01 11:30N 37°28' E 011°06'612.2
2017-Sep-01 11:00N 37°26' E 011°13'612.3
2017-Sep-01 10:30N 37°24' E 011°20'612.2
2017-Sep-01 09:59N 37°21' E 011°28'1112.3
2017-Sep-01 09:03N 37°15' E 011°40'312.5
2017-Sep-01 08:51N 37°14' E 011°43'412.6
2017-Sep-01 08:30N 37°11' E 011°47'612.5
2017-Sep-01 08:00N 37°08' E 011°54'612.2
2017-Sep-01 07:30N 37°05' E 012°01'612.3
2017-Sep-01 07:00N 37°03' E 012°08'612.5
2017-Sep-01 06:30N 37°01' E 012°15'612.3
2017-Sep-01 06:00N 36°59' E 012°22'612.1
2017-Sep-01 05:30N 36°57' E 012°30'712.0
2017-Sep-01 04:57N 36°54' E 012°37'512.1
2017-Sep-01 04:30N 36°52' E 012°43'612.0
2017-Sep-01 04:00N 36°50' E 012°50'811.8
2017-Sep-01 03:21N 36°48' E 012°60'411.8
2017-Sep-01 03:00N 36°46' E 013°05'611.9
2017-Sep-01 02:30N 36°45' E 013°12'611.9
2017-Sep-01 01:58N 36°44' E 013°19'711.9
2017-Sep-01 01:25N 36°42' E 013°27'512.0
2017-Sep-01 01:00N 36°40' E 013°33'712.0
2017-Sep-01 00:23N 36°38' E 013°42'512.1
2017-Sep-01 00:00N 36°37' E 013°48'712.1
2017-Aug-31 23:24N 36°35' E 013°56'512.1
2017-Aug-31 23:00N 36°33' E 014°02'612.1
2017-Aug-31 22:30N 36°31' E 014°09'611.9
2017-Aug-31 22:00N 36°30' E 014°16'611.8
2017-Aug-31 21:30N 36°28' E 014°24'611.6
2017-Aug-31 21:00N 36°27' E 014°31'611.6
2017-Aug-31 20:30N 36°25' E 014°37'611.6
2017-Aug-31 20:00N 36°24' E 014°44'611.6
2017-Aug-31 19:30N 36°22' E 014°51'611.9
2017-Aug-31 18:58N 36°21' E 014°59'511.8
2017-Aug-31 18:30N 36°20' E 015°06'611.6
2017-Aug-31 18:00N 36°19' E 015°13'611.8
2017-Aug-31 17:30N 36°19' E 015°20'  

Dump ship's entire track history